Wetterdaten: aktuell Freitag, 20.05.2022 00:40
Datum Zeit Temp. Feuchte Luftdruck Regen Wind Richtung Richtung Sonnenschein Taupunkt Windchill Windben
20.05.2022 00:40 17.3 C 81 % 1021.4 hPa 0.0 mm 0.0 km/h (0 Bft) O-SO 123 0 min 14.0 C 17.3 C 0.0 km/h (0 Bft)
20.05.2022 00:30 17.3 C 81 % 1021.4 hPa 0.0 mm 0.0 km/h (0 Bft) O-SO 123 0 min 14.0 C 17.3 C 0.0 km/h (0 Bft)
20.05.2022 00:20 17.4 C 79 % 1021.3 hPa 0.0 mm 0.0 km/h (0 Bft) SO 124 0 min 13.7 C 17.4 C 0.0 km/h (0 Bft)
20.05.2022 00:10 17.4 C 80 % 1021.3 hPa 0.0 mm 0.0 km/h (0 Bft) SO 130 0 min 13.9 C 17.4 C 0.0 km/h (0 Bft)
20.05.2022 00:00 17.3 C 80 % 1021.3 hPa 0.0 mm 0.0 km/h (0 Bft) O-SO 120 0 min 13.8 C 17.3 C 0.0 km/h (0 Bft)
19.05.2022 23:50 17.6 C 78 % 1021.3 hPa 0.0 mm 0.0 km/h (0 Bft) O-SO 120 0 min 13.7 C 17.6 C 0.0 km/h (0 Bft)
19.05.2022 23:40 17.7 C 78 % 1021.2 hPa 0.0 mm 0.0 km/h (0 Bft) O-SO 120 0 min 13.8 C 17.7 C 0.0 km/h (0 Bft)
19.05.2022 23:30 17.7 C 77 % 1021.1 hPa 0.0 mm 0.0 km/h (0 Bft) O-SO 120 0 min 13.6 C 17.7 C 0.0 km/h (0 Bft)
19.05.2022 23:20 18.0 C 76 % 1021.0 hPa 0.0 mm 0.0 km/h (0 Bft) O-SO 120 0 min 13.7 C 18.0 C 0.0 km/h (0 Bft)
19.05.2022 23:10 18.2 C 75 % 1021.0 hPa 0.0 mm 0.0 km/h (0 Bft) O-SO 120 0 min 13.7 C 18.2 C 0.0 km/h (0 Bft)
19.05.2022 23:00 18.4 C 74 % 1020.9 hPa 0.0 mm 0.0 km/h (0 Bft) O-SO 120 0 min 13.7 C 18.4 C 0.0 km/h (0 Bft)
19.05.2022 22:50 18.6 C 74 % 1020.9 hPa 0.0 mm 0.0 km/h (0 Bft) O-SO 120 0 min 13.9 C 18.6 C 0.0 km/h (0 Bft)
19.05.2022 22:40 19.2 C 71 % 1020.9 hPa 0.0 mm 0.0 km/h (0 Bft) O-SO 120 0 min 13.8 C 19.2 C 0.0 km/h (0 Bft)
19.05.2022 22:30 19.1 C 72 % 1020.7 hPa 0.0 mm 0.0 km/h (0 Bft) O-SO 120 0 min 13.9 C 19.1 C 0.0 km/h (0 Bft)
19.05.2022 22:20 19.5 C 70 % 1020.7 hPa 0.0 mm 0.0 km/h (0 Bft) O-SO 120 0 min 13.9 C 19.5 C 0.0 km/h (0 Bft)
19.05.2022 22:10 19.7 C 70 % 1020.7 hPa 0.0 mm 0.0 km/h (0 Bft) O-SO 120 0 min 14.1 C 19.7 C 0.0 km/h (0 Bft)
19.05.2022 22:00 20.1 C 69 % 1020.6 hPa 0.0 mm 0.0 km/h (0 Bft) O-SO 120 0 min 14.2 C 20.1 C 0.0 km/h (0 Bft)
19.05.2022 21:50 20.9 C 65 % 1020.5 hPa 0.0 mm 0.0 km/h (0 Bft) O-SO 120 0 min 14.1 C 20.9 C 1.6 km/h (1 Bft)
19.05.2022 21:40 21.3 C 63 % 1020.4 hPa 0.0 mm 1.5 km/h (1 Bft) O-SO 120 0 min 14.0 C 21.3 C 4.8 km/h (1 Bft)
19.05.2022 21:30 21.6 C 62 % 1020.2 hPa 0.0 mm 3.1 km/h (1 Bft) O-SO 120 0 min 14.0 C 21.6 C 8.0 km/h (2 Bft)
19.05.2022 21:20 21.9 C 62 % 1020.2 hPa 0.0 mm 5.7 km/h (1 Bft) O-NO 65 0 min 14.3 C 21.9 C 17.7 km/h (3 Bft)
19.05.2022 21:10 22.3 C 59 % 1020.1 hPa 0.0 mm 9.6 km/h (2 Bft) O-NO 65 0 min 13.9 C 22.3 C 27.4 km/h (4 Bft)
19.05.2022 21:00 22.3 C 60 % 1020.0 hPa 0.0 mm 5.6 km/h (1 Bft) S-SW 200 0 min 14.2 C 22.3 C 19.3 km/h (3 Bft)
19.05.2022 20:50 22.6 C 61 % 1020.1 hPa 0.0 mm 6.9 km/h (2 Bft) S-SW 211 0 min 14.7 C 22.6 C 22.5 km/h (4 Bft)
19.05.2022 20:40 22.6 C 63 % 1020.0 hPa 0.0 mm 4.8 km/h (1 Bft) S 183 0 min 15.2 C 22.6 C 14.5 km/h (3 Bft)
19.05.2022 20:30 22.8 C 63 % 1020.0 hPa 0.0 mm 5.5 km/h (1 Bft) W 262 0 min 15.4 C 22.8 C 22.5 km/h (4 Bft)
19.05.2022 20:20 23.1 C 62 % 1020.1 hPa 0.0 mm 5.9 km/h (2 Bft) SO 128 0 min 15.4 C 23.1 C 16.1 km/h (3 Bft)
19.05.2022 20:10 23.3 C 62 % 1020.0 hPa 0.0 mm 5.3 km/h (1 Bft) S 170 0 min 15.6 C 23.3 C 14.5 km/h (3 Bft)
19.05.2022 20:00 23.7 C 64 % 1020.0 hPa 0.0 mm 5.4 km/h (1 Bft) O-NO 78 0 min 16.5 C 23.7 C 16.1 km/h (3 Bft)
19.05.2022 19:50 24.2 C 63 % 1020.0 hPa 0.0 mm 4.8 km/h (1 Bft) SW 223 10 min 16.7 C 24.2 C 11.3 km/h (2 Bft)
19.05.2022 19:40 24.2 C 63 % 1019.9 hPa 0.0 mm 7.6 km/h (2 Bft) O 101 10 min 16.7 C 24.2 C 16.1 km/h (3 Bft)
19.05.2022 19:30 24.5 C 62 % 1019.9 hPa 0.0 mm 4.8 km/h (1 Bft) O-SO 113 10 min 16.7 C 24.5 C 12.9 km/h (3 Bft)
19.05.2022 19:20 24.6 C 61 % 1019.9 hPa 0.0 mm 2.6 km/h (1 Bft) S-SW 208 10 min 16.6 C 24.6 C 12.9 km/h (3 Bft)
19.05.2022 19:10 24.4 C 61 % 1019.6 hPa 0.0 mm 6.2 km/h (2 Bft) W-SW 241 10 min 16.4 C 24.4 C 25.7 km/h (4 Bft)
19.05.2022 19:00 24.7 C 59 % 1020.1 hPa 0.0 mm 4.3 km/h (1 Bft) SW 222 0 min 16.1 C 24.7 C 14.5 km/h (3 Bft)
19.05.2022 18:50 24.7 C 59 % 1019.8 hPa 0.0 mm 5.5 km/h (1 Bft) O 82 0 min 16.1 C 24.7 C 14.5 km/h (3 Bft)
19.05.2022 18:40 25.1 C 57 % 1019.8 hPa 0.0 mm 4.9 km/h (1 Bft) O-SO 114 0 min 16.0 C 25.1 C 12.9 km/h (3 Bft)
19.05.2022 18:30 25.8 C 56 % 1019.7 hPa 0.0 mm 3.6 km/h (1 Bft) S 171 0 min 16.3 C 25.8 C 9.7 km/h (2 Bft)
19.05.2022 18:20 26.1 C 58 % 1019.6 hPa 0.0 mm 3.0 km/h (1 Bft) SO 124 0 min 17.2 C 26.1 C 11.3 km/h (2 Bft)
19.05.2022 18:10 26.7 C 56 % 1019.6 hPa 0.0 mm 2.3 km/h (1 Bft) SO 129 10 min 17.2 C 26.7 C 6.4 km/h (2 Bft)
19.05.2022 18:00 26.8 C 54 % 1019.6 hPa 0.0 mm 2.1 km/h (1 Bft) O 101 0 min 16.7 C 26.8 C 6.4 km/h (2 Bft)
19.05.2022 17:50 27.2 C 50 % 1019.6 hPa 0.0 mm 2.4 km/h (1 Bft) O-NO 73 10 min 15.9 C 27.2 C 6.4 km/h (2 Bft)
19.05.2022 17:40 27.7 C 50 % 1019.5 hPa 0.0 mm 1.6 km/h (1 Bft) N-NO 26 10 min 16.3 C 27.7 C 4.8 km/h (1 Bft)
19.05.2022 17:30 27.8 C 48 % 1019.3 hPa 0.0 mm 3.5 km/h (1 Bft) O-NO 57 10 min 15.8 C 27.8 C 8.0 km/h (2 Bft)
19.05.2022 17:20 28.6 C 47 % 1019.3 hPa 0.0 mm 4.8 km/h (1 Bft) N 355 10 min 16.2 C 28.6 C 9.7 km/h (2 Bft)
19.05.2022 17:10 28.3 C 46 % 1019.2 hPa 0.0 mm 3.9 km/h (1 Bft) NW 323 10 min 15.6 C 28.3 C 11.3 km/h (2 Bft)
19.05.2022 17:00 27.9 C 48 % 1019.1 hPa 0.0 mm 6.1 km/h (2 Bft) N-NW 332 10 min 15.9 C 27.9 C 12.9 km/h (3 Bft)
19.05.2022 16:50 28.4 C 46 % 1019.3 hPa 0.0 mm 3.4 km/h (1 Bft) W-SW 257 10 min 15.6 C 28.4 C 8.0 km/h (2 Bft)
19.05.2022 16:40 27.9 C 48 % 1019.3 hPa 0.0 mm 6.9 km/h (2 Bft) SW 232 10 min 15.9 C 27.9 C 14.5 km/h (3 Bft)
19.05.2022 16:30 27.7 C 47 % 1019.5 hPa 0.0 mm 9.0 km/h (2 Bft) W 267 10 min 15.3 C 27.7 C 17.7 km/h (3 Bft)
19.05.2022 16:20 27.8 C 49 % 1019.4 hPa 0.0 mm 7.7 km/h (2 Bft) N-NW 330 10 min 16.1 C 27.8 C 16.1 km/h (3 Bft)
19.05.2022 16:10 27.3 C 50 % 1019.5 hPa 0.0 mm 8.1 km/h (2 Bft) NW 323 10 min 15.9 C 27.3 C 20.9 km/h (4 Bft)
19.05.2022 16:00 28.1 C 47 % 1019.6 hPa 0.0 mm 13.2 km/h (3 Bft) N-NO 22 10 min 15.7 C 28.1 C 27.4 km/h (4 Bft)
19.05.2022 15:50 29.0 C 45 % 1019.6 hPa 0.0 mm 15.4 km/h (3 Bft) NW 309 10 min 15.8 C 29.0 C 32.2 km/h (5 Bft)
19.05.2022 15:40 30.1 C 40 % 1019.3 hPa 0.0 mm 16.3 km/h (3 Bft) W 279 10 min 15.0 C 30.1 C 33.8 km/h (5 Bft)
19.05.2022 15:30 30.8 C 39 % 1018.9 hPa 0.0 mm 9.4 km/h (2 Bft) W 278 10 min 15.2 C 30.8 C 19.3 km/h (3 Bft)
19.05.2022 15:20 30.3 C 40 % 1018.8 hPa 0.0 mm 14.3 km/h (3 Bft) W-SW 239 10 min 15.2 C 30.3 C 29.0 km/h (5 Bft)
19.05.2022 15:10 30.6 C 39 % 1018.9 hPa 0.0 mm 12.9 km/h (3 Bft) W-SW 247 10 min 15.0 C 30.6 C 24.1 km/h (4 Bft)
19.05.2022 15:00 30.9 C 38 % 1018.9 hPa 0.0 mm 15.0 km/h (3 Bft) SW 228 10 min 14.9 C 30.9 C 20.9 km/h (4 Bft)
19.05.2022 14:50 30.7 C 38 % 1018.9 hPa 0.0 mm 12.0 km/h (2 Bft) S-SW 205 10 min 14.7 C 30.7 C 27.4 km/h (4 Bft)
19.05.2022 14:40 30.4 C 38 % 1018.9 hPa 0.0 mm 12.3 km/h (3 Bft) S 188 10 min 14.5 C 30.4 C 25.7 km/h (4 Bft)
19.05.2022 14:30 30.4 C 40 % 1019.0 hPa 0.0 mm 10.4 km/h (2 Bft) S-SW 197 10 min 15.3 C 30.4 C 22.5 km/h (4 Bft)
19.05.2022 14:20 30.5 C 39 % 1019.3 hPa 0.0 mm 11.6 km/h (2 Bft) SW 229 10 min 15.0 C 30.5 C 22.5 km/h (4 Bft)
19.05.2022 14:10 30.3 C 43 % 1019.2 hPa 0.0 mm 9.4 km/h (2 Bft) NW 306 10 min 16.3 C 30.3 C 17.7 km/h (3 Bft)
19.05.2022 14:00 29.9 C 45 % 1019.4 hPa 0.0 mm 10.0 km/h (2 Bft) W 269 10 min 16.7 C 29.9 C 19.3 km/h (3 Bft)
19.05.2022 13:50 29.6 C 45 % 1019.5 hPa 0.0 mm 11.5 km/h (2 Bft) W-SW 251 10 min 16.4 C 29.6 C 22.5 km/h (4 Bft)
19.05.2022 13:40 29.6 C 46 % 1019.5 hPa 0.0 mm 12.0 km/h (2 Bft) W-SW 251 10 min 16.7 C 29.6 C 24.1 km/h (4 Bft)
19.05.2022 13:30 29.7 C 48 % 1019.5 hPa 0.0 mm 9.5 km/h (2 Bft) W 281 10 min 17.5 C 29.7 C 17.7 km/h (3 Bft)
19.05.2022 13:20 29.2 C 51 % 1019.3 hPa 0.0 mm 4.5 km/h (1 Bft) W 261 10 min 18.0 C 29.2 C 11.3 km/h (2 Bft)
19.05.2022 13:10 28.1 C 51 % 1019.4 hPa 0.0 mm 3.2 km/h (1 Bft) S 169 10 min 17.0 C 28.1 C 12.9 km/h (3 Bft)
19.05.2022 13:00 28.4 C 50 % 1019.4 hPa 0.0 mm 4.7 km/h (1 Bft) W-NW 297 10 min 17.0 C 28.4 C 16.1 km/h (3 Bft)
19.05.2022 12:50 28.4 C 49 % 1019.7 hPa 0.0 mm 8.1 km/h (2 Bft) NW 306 10 min 16.6 C 28.4 C 17.7 km/h (3 Bft)
19.05.2022 12:40 28.2 C 51 % 1019.8 hPa 0.0 mm 9.3 km/h (2 Bft) W-NW 301 10 min 17.1 C 28.2 C 19.3 km/h (3 Bft)
19.05.2022 12:30 28.2 C 50 % 1019.9 hPa 0.0 mm 7.1 km/h (2 Bft) W-NW 299 10 min 16.8 C 28.2 C 19.3 km/h (3 Bft)
19.05.2022 12:20 27.9 C 52 % 1019.9 hPa 0.0 mm 6.9 km/h (2 Bft) W-SW 239 10 min 17.1 C 27.9 C 12.9 km/h (3 Bft)
19.05.2022 12:10 27.6 C 54 % 1020.0 hPa 0.0 mm 6.0 km/h (2 Bft) SW 229 10 min 17.4 C 27.6 C 14.5 km/h (3 Bft)
19.05.2022 12:00 27.2 C 55 % 1020.0 hPa 0.0 mm 4.7 km/h (1 Bft) SW 236 10 min 17.4 C 27.2 C 9.7 km/h (2 Bft)
19.05.2022 11:50 26.2 C 56 % 1020.1 hPa 0.0 mm 2.4 km/h (1 Bft) S-SO 166 10 min 16.7 C 26.2 C 8.0 km/h (2 Bft)
19.05.2022 11:40 26.2 C 58 % 1020.1 hPa 0.0 mm 2.3 km/h (1 Bft) W 275 10 min 17.3 C 26.2 C 4.8 km/h (1 Bft)
19.05.2022 11:30 25.7 C 60 % 1020.4 hPa 0.0 mm 3.0 km/h (1 Bft) SW 221 10 min 17.3 C 25.7 C 9.7 km/h (2 Bft)
19.05.2022 11:20 25.7 C 58 % 1020.3 hPa 0.0 mm 3.1 km/h (1 Bft) W-NW 300 10 min 16.8 C 25.7 C 8.0 km/h (2 Bft)
19.05.2022 11:10 25.1 C 59 % 1020.4 hPa 0.0 mm 2.1 km/h (1 Bft) S-SW 196 10 min 16.5 C 25.1 C 8.0 km/h (2 Bft)
19.05.2022 11:00 25.1 C 60 % 1020.4 hPa 0.0 mm 3.5 km/h (1 Bft) W 281 10 min 16.8 C 25.1 C 9.7 km/h (2 Bft)
19.05.2022 10:50 24.6 C 62 % 1020.4 hPa 0.0 mm 2.4 km/h (1 Bft) W 271 10 min 16.8 C 24.6 C 6.4 km/h (2 Bft)
19.05.2022 10:40 24.1 C 64 % 1020.5 hPa 0.0 mm 2.0 km/h (1 Bft) W 262 10 min 16.9 C 24.1 C 6.4 km/h (2 Bft)
19.05.2022 10:30 23.6 C 65 % 1020.7 hPa 0.0 mm 1.9 km/h (1 Bft) W-NW 288 10 min 16.6 C 23.6 C 12.9 km/h (3 Bft)
19.05.2022 10:20 23.5 C 63 % 1020.6 hPa 0.0 mm 3.7 km/h (1 Bft) W-SW 253 10 min 16.0 C 23.5 C 6.4 km/h (2 Bft)
19.05.2022 10:10 23.2 C 63 % 1020.6 hPa 0.0 mm 4.4 km/h (1 Bft) W-NW 302 10 min 15.8 C 23.2 C 9.7 km/h (2 Bft)
19.05.2022 10:00 22.8 C 65 % 1020.6 hPa 0.0 mm 2.9 km/h (1 Bft) W 267 10 min 15.9 C 22.8 C 6.4 km/h (2 Bft)
19.05.2022 09:50 22.4 C 66 % 1020.6 hPa 0.0 mm 1.4 km/h (1 Bft) S-SW 209 10 min 15.7 C 22.4 C 6.4 km/h (2 Bft)
19.05.2022 09:40 21.6 C 69 % 1020.7 hPa 0.0 mm 1.2 km/h (1 Bft) W-SW 252 10 min 15.7 C 21.6 C 3.2 km/h (1 Bft)
19.05.2022 09:30 21.3 C 69 % 1020.7 hPa 0.0 mm 3.1 km/h (1 Bft) W-SW 248 10 min 15.4 C 21.3 C 6.4 km/h (2 Bft)
19.05.2022 09:20 20.8 C 70 % 1020.7 hPa 0.0 mm 1.9 km/h (1 Bft) N-NW 337 10 min 15.1 C 20.8 C 6.4 km/h (2 Bft)
19.05.2022 09:10 20.3 C 71 % 1020.7 hPa 0.0 mm 0.4 km/h (0 Bft) N-NW 338 10 min 14.9 C 20.3 C 3.2 km/h (1 Bft)
19.05.2022 09:00 19.6 C 75 % 1020.6 hPa 0.0 mm 1.2 km/h (1 Bft) N-NW 338 10 min 15.0 C 19.6 C 3.2 km/h (1 Bft)
19.05.2022 08:50 18.9 C 75 % 1020.6 hPa 0.0 mm 0.0 km/h (0 Bft) N-NW 338 10 min 14.4 C 18.9 C 0.0 km/h (0 Bft)
19.05.2022 08:40 18.7 C 77 % 1020.6 hPa 0.0 mm 1.0 km/h (0 Bft) N-NW 338 10 min 14.6 C 18.7 C 4.8 km/h (1 Bft)
19.05.2022 08:30 18.1 C 79 % 1020.7 hPa 0.0 mm 0.9 km/h (0 Bft) N-NW 338 10 min 14.4 C 18.1 C 3.2 km/h (1 Bft)
19.05.2022 08:20 17.6 C 80 % 1020.6 hPa 0.0 mm 0.8 km/h (0 Bft) N-NW 338 10 min 14.1 C 17.6 C 4.8 km/h (1 Bft)
19.05.2022 08:10 17.2 C 81 % 1020.7 hPa 0.0 mm 0.5 km/h (0 Bft) N-NW 337 10 min 13.9 C 17.2 C 4.8 km/h (1 Bft)
19.05.2022 08:00 16.7 C 83 % 1020.6 hPa 0.0 mm 0.0 km/h (0 Bft) O 80 10 min 13.8 C 16.7 C 0.0 km/h (0 Bft)
19.05.2022 07:50 16.4 C 83 % 1020.6 hPa 0.0 mm 0.0 km/h (0 Bft) O 80 10 min 13.5 C 16.4 C 0.0 km/h (0 Bft)
19.05.2022 07:40 16.0 C 84 % 1020.5 hPa 0.0 mm 0.0 km/h (0 Bft) O 80 10 min 13.3 C 16.0 C 0.0 km/h (0 Bft)
19.05.2022 07:30 15.7 C 86 % 1020.3 hPa 0.0 mm 0.0 km/h (0 Bft) O 80 0 min 13.4 C 15.7 C 0.0 km/h (0 Bft)
19.05.2022 07:20 15.4 C 87 % 1020.0 hPa 0.0 mm 0.0 km/h (0 Bft) O 80 0 min 13.2 C 15.4 C 0.0 km/h (0 Bft)
19.05.2022 07:10 15.1 C 87 % 1020.0 hPa 0.0 mm 0.0 km/h (0 Bft) O 80 0 min 13.0 C 15.1 C 0.0 km/h (0 Bft)
19.05.2022 07:00 14.9 C 88 % 1019.9 hPa 0.0 mm 0.0 km/h (0 Bft) O 80 0 min 12.9 C 14.9 C 0.0 km/h (0 Bft)
19.05.2022 06:50 14.6 C 89 % 1019.8 hPa 0.0 mm 0.0 km/h (0 Bft) O 80 0 min 12.8 C 14.6 C 0.0 km/h (0 Bft)
19.05.2022 06:40 14.2 C 90 % 1019.5 hPa 0.0 mm 0.0 km/h (0 Bft) O 80 0 min 12.6 C 14.2 C 0.0 km/h (0 Bft)
19.05.2022 06:30 13.9 C 90 % 1019.6 hPa 0.0 mm 0.0 km/h (0 Bft) O 80 0 min 12.3 C 13.9 C 0.0 km/h (0 Bft)
19.05.2022 06:20 13.8 C 89 % 1019.5 hPa 0.0 mm 1.9 km/h (1 Bft) O 80 0 min 12.0 C 13.8 C 4.8 km/h (1 Bft)
19.05.2022 06:10 13.8 C 89 % 1019.3 hPa 0.0 mm 1.2 km/h (1 Bft) O 80 0 min 12.0 C 13.8 C 6.4 km/h (2 Bft)
19.05.2022 06:00 13.7 C 89 % 1019.3 hPa 0.0 mm 0.0 km/h (0 Bft) O 80 0 min 11.9 C 13.7 C 0.0 km/h (0 Bft)
19.05.2022 05:50 13.8 C 89 % 1019.2 hPa 0.0 mm 0.0 km/h (0 Bft) O 80 0 min 12.0 C 13.8 C 0.0 km/h (0 Bft)
19.05.2022 05:40 13.9 C 89 % 1019.2 hPa 0.0 mm 0.0 km/h (0 Bft) O 80 0 min 12.1 C 13.9 C 0.0 km/h (0 Bft)
19.05.2022 05:30 13.7 C 88 % 1019.1 hPa 0.0 mm 0.0 km/h (0 Bft) O 80 0 min 11.7 C 13.7 C 0.0 km/h (0 Bft)
19.05.2022 05:20 14.0 C 88 % 1019.1 hPa 0.0 mm 0.0 km/h (0 Bft) O 80 0 min 12.0 C 14.0 C 0.0 km/h (0 Bft)
19.05.2022 05:10 14.1 C 88 % 1019.1 hPa 0.0 mm 0.0 km/h (0 Bft) O 80 0 min 12.1 C 14.1 C 0.0 km/h (0 Bft)
19.05.2022 05:00 14.1 C 87 % 1019.0 hPa 0.0 mm 0.0 km/h (0 Bft) O 80 0 min 12.0 C 14.1 C 0.0 km/h (0 Bft)
19.05.2022 04:50 14.2 C 87 % 1019.0 hPa 0.0 mm 0.1 km/h (0 Bft) O 80 0 min 12.1 C 14.2 C 1.6 km/h (1 Bft)
19.05.2022 04:40 14.4 C 86 % 1018.8 hPa 0.0 mm 0.0 km/h (0 Bft) O 80 0 min 12.1 C 14.4 C 1.6 km/h (1 Bft)
19.05.2022 04:30 14.6 C 86 % 1018.9 hPa 0.0 mm 0.0 km/h (0 Bft) O 80 0 min 12.3 C 14.6 C 1.6 km/h (1 Bft)
19.05.2022 04:20 14.8 C 85 % 1018.8 hPa 0.0 mm 0.8 km/h (0 Bft) O 80 0 min 12.3 C 14.8 C 3.2 km/h (1 Bft)
19.05.2022 04:10 14.9 C 84 % 1018.8 hPa 0.0 mm 0.0 km/h (0 Bft) O 80 0 min 12.2 C 14.9 C 0.0 km/h (0 Bft)
19.05.2022 04:00 15.1 C 84 % 1018.8 hPa 0.0 mm 0.0 km/h (0 Bft) O 80 0 min 12.4 C 15.1 C 0.0 km/h (0 Bft)
19.05.2022 03:50 15.1 C 84 % 1018.9 hPa 0.0 mm 0.0 km/h (0 Bft) O 80 0 min 12.4 C 15.1 C 0.0 km/h (0 Bft)
19.05.2022 03:40 15.2 C 84 % 1018.8 hPa 0.0 mm 0.4 km/h (0 Bft) O 80 0 min 12.5 C 15.2 C 3.2 km/h (1 Bft)
19.05.2022 03:30 15.3 C 83 % 1018.8 hPa 0.0 mm 2.2 km/h (1 Bft) O 80 0 min 12.4 C 15.3 C 4.8 km/h (1 Bft)
19.05.2022 03:20 15.6 C 82 % 1018.7 hPa 0.0 mm 0.0 km/h (0 Bft) O 80 0 min 12.5 C 15.6 C 0.0 km/h (0 Bft)
19.05.2022 03:10 15.8 C 81 % 1018.8 hPa 0.0 mm 0.5 km/h (0 Bft) O 80 0 min 12.5 C 15.8 C 3.2 km/h (1 Bft)
19.05.2022 03:00 15.7 C 81 % 1018.8 hPa 0.0 mm 0.8 km/h (0 Bft) O 80 0 min 12.4 C 15.7 C 3.2 km/h (1 Bft)
19.05.2022 02:50 15.8 C 81 % 1018.6 hPa 0.0 mm 0.0 km/h (0 Bft) O 80 0 min 12.5 C 15.8 C 1.6 km/h (1 Bft)
19.05.2022 02:40 15.8 C 81 % 1018.6 hPa 0.0 mm 0.3 km/h (0 Bft) O 80 0 min 12.5 C 15.8 C 3.2 km/h (1 Bft)
19.05.2022 02:30 15.8 C 81 % 1018.6 hPa 0.0 mm 0.7 km/h (0 Bft) O 80 0 min 12.5 C 15.8 C 3.2 km/h (1 Bft)
19.05.2022 02:20 15.9 C 80 % 1018.6 hPa 0.0 mm 0.8 km/h (0 Bft) O 80 0 min 12.5 C 15.9 C 4.8 km/h (1 Bft)
19.05.2022 02:10 16.1 C 79 % 1018.6 hPa 0.0 mm 0.4 km/h (0 Bft) O 80 0 min 12.5 C 16.1 C 3.2 km/h (1 Bft)
19.05.2022 02:00 16.3 C 79 % 1018.6 hPa 0.0 mm 0.6 km/h (0 Bft) O 80 0 min 12.6 C 16.3 C 3.2 km/h (1 Bft)
19.05.2022 01:50 16.4 C 78 % 1018.6 hPa 0.0 mm 0.3 km/h (0 Bft) O 80 0 min 12.6 C 16.4 C 1.6 km/h (1 Bft)
19.05.2022 01:40 16.7 C 77 % 1018.6 hPa 0.0 mm 0.1 km/h (0 Bft) O 80 0 min 12.6 C 16.7 C 1.6 km/h (1 Bft)
19.05.2022 01:30 16.7 C 77 % 1018.6 hPa 0.0 mm 1.0 km/h (0 Bft) O 80 0 min 12.6 C 16.7 C 3.2 km/h (1 Bft)
19.05.2022 01:20 16.9 C 76 % 1018.5 hPa 0.0 mm 0.0 km/h (0 Bft) O 80 0 min 12.6 C 16.9 C 0.0 km/h (0 Bft)
19.05.2022 01:10 17.3 C 75 % 1018.5 hPa 0.0 mm 0.0 km/h (0 Bft) O 80 0 min 12.8 C 17.3 C 0.0 km/h (0 Bft)
19.05.2022 01:00 17.7 C 73 % 1018.5 hPa 0.0 mm 0.0 km/h (0 Bft) O 80 0 min 12.8 C 17.7 C 0.0 km/h (0 Bft)
_ Min-Zeit 05:30 14:40 01:00 - 01:00 - - - 05:30 05:30 01:00
Minimum _ 13.7 C 38 % 1018.5 hPa - 0.0 km/h (0 Bft) - - - 11.7 C 13.7 C 0.0 km/h (0 Bft)
_ Max-Zeit 15:00 06:30 00:30 01:00 15:40 - - 07:40 13:20 15:00 15:40
Maximum _ 30.9 C 90 % 1021.4 hPa 0.0 mm 16.3 km/h
W (3 Bft)
- - 10 min 18.0 C 30.9 C 33.8 km/h
S-SW (5 Bft)
Durchschnitt _ 21.5 C 67 % 1019.7 hPa #0.0 mm 3.2 km/h (1 Bft) W - #0 min. 14.6 C 21.5 C 8.1 km/h (2 Bft)